Terminal Aerodrome Forecast
Issued by NWS

Home | Current Version | Previous Version | Text Only | Print | Product List | Glossary On
Versions: 1 2 3 4 5 6 7 8 9 10 11 12 13 14 15 16 17 18 19 20 21 22 23
000
FTUS42 KKEY 310520
TAFMTH
TAF
KMTH 310520Z 3106/0106 11006KT P6SM FEW022
     FM310900 11006KT P6SM VCSH SCT020 SCT030 BKN100
     FM311500 11008KT P6SM FEW018 SCT025 BKN120=

USA.gov is the U.S. government's official web portal to all federal, state and local government web resources and services.